createdAt,value
2022-08-27T00:02:14.982Z,20.40
2022-08-27T00:04:46.589Z,20.40
2022-08-27T00:07:18.221Z,20.40
2022-08-27T00:09:49.095Z,20.40
2022-08-27T00:12:20.077Z,20.40
2022-08-27T00:14:51.138Z,20.50
2022-08-27T00:17:22.066Z,20.60
2022-08-27T00:19:53.151Z,20.70
2022-08-27T00:22:24.129Z,20.80
2022-08-27T00:24:55.048Z,20.80
2022-08-27T00:27:25.956Z,20.70
2022-08-27T00:29:56.940Z,20.60
2022-08-27T00:32:27.904Z,20.60
2022-08-27T00:34:58.825Z,20.50
2022-08-27T00:37:29.720Z,20.60
2022-08-27T00:40:01.635Z,20.60
2022-08-27T00:42:33.314Z,20.60
2022-08-27T00:45:07.155Z,20.60
2022-08-27T00:47:47.662Z,20.50
2022-08-27T00:50:29.065Z,20.60
2022-08-27T00:53:06.654Z,20.60
2022-08-27T00:56:05.173Z,20.70
2022-08-27T00:58:42.701Z,20.70
2022-08-27T01:01:18.966Z,20.70
2022-08-27T01:03:56.399Z,20.80
2022-08-27T01:06:34.416Z,20.80
2022-08-27T01:09:13.987Z,20.80
2022-08-27T01:11:47.932Z,20.70
2022-08-27T01:14:19.580Z,20.70
2022-08-27T01:16:54.912Z,20.70
2022-08-27T01:19:47.195Z,20.60
2022-08-27T01:22:41.371Z,20.60
2022-08-27T01:25:16.322Z,20.60
2022-08-27T01:27:48.200Z,20.70
2022-08-27T01:30:21.735Z,20.70
2022-08-27T01:32:53.517Z,20.60
2022-08-27T01:35:25.599Z,20.60
2022-08-27T01:37:57.078Z,20.60
2022-08-27T01:40:28.279Z,20.50
2022-08-27T01:43:00.149Z,20.60
2022-08-27T01:45:35.982Z,20.60
2022-08-27T01:48:10.127Z,20.50
2022-08-27T01:50:42.072Z,20.50
2022-08-27T01:53:18.689Z,20.60
2022-08-27T01:55:52.529Z,20.70
2022-08-27T01:58:28.141Z,20.80
2022-08-27T02:01:05.648Z,20.90
2022-08-27T02:03:37.291Z,20.90
2022-08-27T02:06:11.790Z,20.90
2022-08-27T02:08:42.746Z,20.90
2022-08-27T02:11:13.633Z,20.90
2022-08-27T02:13:44.580Z,20.90
2022-08-27T02:16:15.588Z,20.80
2022-08-27T02:18:47.279Z,20.90
2022-08-27T02:21:18.214Z,21.00
2022-08-27T02:23:49.071Z,21.00
2022-08-27T02:26:19.991Z,21.00
2022-08-27T02:28:50.924Z,21.10
2022-08-27T02:31:22.888Z,21.10
2022-08-27T02:33:53.821Z,21.20
2022-08-27T02:36:25.535Z,21.20
2022-08-27T02:38:56.660Z,21.10
2022-08-27T02:41:27.840Z,21.10
2022-08-27T02:43:58.930Z,21.00
2022-08-27T02:46:32.099Z,21.00
2022-08-27T02:49:03.548Z,21.00
2022-08-27T02:51:34.669Z,21.00
2022-08-27T02:54:05.810Z,21.00
2022-08-27T02:56:40.518Z,21.00
2022-08-27T02:59:11.438Z,21.00
2022-08-27T03:01:42.388Z,21.00
2022-08-27T03:04:14.199Z,21.10
2022-08-27T03:06:45.975Z,21.20
2022-08-27T03:09:16.862Z,21.20
2022-08-27T03:11:48.260Z,21.20
2022-08-27T03:14:19.205Z,21.10
2022-08-27T03:16:50.395Z,21.00
2022-08-27T03:19:24.058Z,21.00
2022-08-27T03:21:55.156Z,20.90
2022-08-27T03:24:26.097Z,20.90
2022-08-27T03:26:57.213Z,20.70
2022-08-27T03:29:28.365Z,20.60
2022-08-27T03:31:59.348Z,20.50
2022-08-27T03:34:31.022Z,20.50
2022-08-27T03:37:01.981Z,20.50
2022-08-27T03:39:32.887Z,20.60
2022-08-27T03:42:04.105Z,20.50
2022-08-27T03:44:35.157Z,20.60
2022-08-27T03:47:06.465Z,20.60
2022-08-27T03:49:37.401Z,20.60
2022-08-27T03:52:09.055Z,20.60
2022-08-27T03:54:40.341Z,20.60
2022-08-27T03:57:11.850Z,20.60
2022-08-27T03:59:42.908Z,20.60
2022-08-27T04:02:14.936Z,20.50
2022-08-27T04:04:45.899Z,20.50
2022-08-27T04:07:16.774Z,20.40
2022-08-27T04:09:47.785Z,20.30
2022-08-27T04:12:18.722Z,20.40
2022-08-27T04:14:49.694Z,20.30
2022-08-27T04:17:20.576Z,20.30
2022-08-27T04:19:52.717Z,20.40
2022-08-27T04:22:23.819Z,20.30
2022-08-27T04:24:55.630Z,20.20
2022-08-27T04:27:26.891Z,20.00
2022-08-27T04:29:59.983Z,20.10
2022-08-27T04:32:31.003Z,20.20
2022-08-27T04:35:06.001Z,20.30
2022-08-27T04:37:37.045Z,20.40
2022-08-27T04:40:09.045Z,20.40
2022-08-27T04:42:39.947Z,20.40
2022-08-27T04:45:11.391Z,20.30
2022-08-27T04:47:42.327Z,20.30
2022-08-27T04:50:13.312Z,20.40
2022-08-27T04:52:45.649Z,20.40
2022-08-27T04:55:18.675Z,20.50
2022-08-27T04:57:49.554Z,20.50
2022-08-27T05:00:20.526Z,20.50
2022-08-27T05:02:51.430Z,20.30
2022-08-27T05:05:23.541Z,20.40
2022-08-27T05:07:54.501Z,20.50
2022-08-27T05:10:25.402Z,20.40
2022-08-27T05:12:59.976Z,20.50
2022-08-27T05:15:31.269Z,20.40
2022-08-27T05:18:03.295Z,20.50
2022-08-27T05:20:42.721Z,20.50
2022-08-27T05:23:17.178Z,20.50
2022-08-27T05:25:50.851Z,20.60
2022-08-27T05:28:27.767Z,20.60
2022-08-27T05:31:09.037Z,20.70
2022-08-27T05:33:41.411Z,20.70
2022-08-27T05:36:22.948Z,20.70
2022-08-27T05:38:55.934Z,20.70
2022-08-27T05:41:34.275Z,20.70
2022-08-27T05:44:30.257Z,20.60
2022-08-27T05:47:00.380Z,20.50
2022-08-27T05:49:31.858Z,20.50
2022-08-27T05:52:03.487Z,20.50
2022-08-27T05:54:34.423Z,20.50
2022-08-27T05:57:06.024Z,20.50
2022-08-27T05:59:55.911Z,20.40
2022-08-27T06:02:27.147Z,20.40
2022-08-27T06:04:58.163Z,20.40
2022-08-27T06:07:29.891Z,20.50
2022-08-27T06:10:00.882Z,20.60
2022-08-27T06:12:31.879Z,20.60
2022-08-27T06:15:03.499Z,20.60
2022-08-27T06:17:34.566Z,20.60
2022-08-27T06:20:05.948Z,20.60
2022-08-27T06:22:36.930Z,20.70
2022-08-27T06:25:08.434Z,20.70
2022-08-27T06:27:39.422Z,20.70
2022-08-27T06:30:13.644Z,20.60
2022-08-27T06:32:47.907Z,20.50
2022-08-27T06:35:19.157Z,20.40
2022-08-27T06:37:50.506Z,20.50
2022-08-27T06:40:21.577Z,20.50
2022-08-27T06:42:53.117Z,20.60
2022-08-27T06:45:23.989Z,20.60
2022-08-27T06:47:55.929Z,20.70
2022-08-27T06:50:27.439Z,21.00
2022-08-27T06:52:58.476Z,20.90
2022-08-27T06:55:30.203Z,20.70
2022-08-27T06:58:03.146Z,20.70
2022-08-27T07:00:34.149Z,20.60
2022-08-27T07:03:06.375Z,20.70
2022-08-27T07:05:40.269Z,20.80
2022-08-27T07:08:11.560Z,20.90
2022-08-27T07:10:43.369Z,20.80
2022-08-27T07:13:14.323Z,20.90
2022-08-27T07:15:45.330Z,21.00
2022-08-27T07:18:16.276Z,21.10
2022-08-27T07:20:53.057Z,21.00
2022-08-27T07:23:25.396Z,21.10
2022-08-27T07:25:56.823Z,21.20
2022-08-27T07:28:28.845Z,21.20
2022-08-27T07:31:00.708Z,21.10
2022-08-27T07:33:37.899Z,21.10
2022-08-27T07:36:09.438Z,21.00
2022-08-27T07:38:40.540Z,21.10
2022-08-27T07:41:13.429Z,21.10
2022-08-27T07:44:02.605Z,21.20
2022-08-27T07:46:37.943Z,21.20
2022-08-27T07:49:10.442Z,21.20
2022-08-27T07:51:42.442Z,21.30
2022-08-27T07:54:13.932Z,21.30
2022-08-27T07:56:55.810Z,21.20
2022-08-27T07:59:30.265Z,21.20
2022-08-27T08:02:01.240Z,21.20
2022-08-27T08:04:32.105Z,21.20
2022-08-27T08:07:03.030Z,21.10
2022-08-27T08:09:33.903Z,21.20
2022-08-27T08:12:07.555Z,21.20
2022-08-27T08:14:38.479Z,21.10
2022-08-27T08:17:10.703Z,21.10
2022-08-27T08:19:57.212Z,21.10
2022-08-27T08:22:36.115Z,21.20
2022-08-27T08:25:12.865Z,21.10
2022-08-27T08:27:44.488Z,20.90
2022-08-27T08:30:17.214Z,20.90
2022-08-27T08:32:48.573Z,20.80
2022-08-27T08:35:19.956Z,20.70
2022-08-27T08:37:51.474Z,20.80
2022-08-27T08:40:40.198Z,20.80
2022-08-27T08:43:38.589Z,20.80
2022-08-27T08:46:28.019Z,20.80
2022-08-27T08:49:24.439Z,20.60
2022-08-27T08:52:08.250Z,20.60
2022-08-27T08:54:39.904Z,20.60
2022-08-27T08:57:39.153Z,20.60
2022-08-27T09:00:13.703Z,20.70
2022-08-27T09:02:54.820Z,20.60
2022-08-27T09:05:27.557Z,20.50
2022-08-27T09:08:35.171Z,20.50
2022-08-27T09:11:32.309Z,20.30
2022-08-27T09:14:21.489Z,20.30
2022-08-27T09:16:56.414Z,20.30
2022-08-27T09:19:29.375Z,20.20
2022-08-27T09:22:24.565Z,20.20
2022-08-27T09:25:21.134Z,20.20
2022-08-27T09:27:55.702Z,20.50
2022-08-27T09:30:33.800Z,20.50
2022-08-27T09:33:05.286Z,20.50
2022-08-27T09:35:46.918Z,20.50
2022-08-27T09:38:31.998Z,20.40
2022-08-27T09:41:13.227Z,20.50
2022-08-27T09:43:45.163Z,20.50
2022-08-27T09:46:26.981Z,20.50
2022-08-27T09:48:58.330Z,20.60
2022-08-27T09:51:30.168Z,20.60
2022-08-27T09:54:06.514Z,20.50
2022-08-27T09:56:46.348Z,20.50
2022-08-27T09:59:27.403Z,20.50
2022-08-27T10:02:14.854Z,20.50
2022-08-27T10:04:51.144Z,20.50
2022-08-27T10:07:52.602Z,20.50
2022-08-27T10:10:35.538Z,20.60
2022-08-27T10:13:20.342Z,20.70
2022-08-27T10:16:12.285Z,20.70
2022-08-27T10:19:30.286Z,20.80
2022-08-27T10:22:32.069Z,20.80
2022-08-27T10:25:48.650Z,20.80
2022-08-27T10:29:08.471Z,20.70
2022-08-27T10:31:53.915Z,20.70
2022-08-27T10:34:47.675Z,20.70
2022-08-27T10:37:48.486Z,20.90
2022-08-27T10:40:29.916Z,20.90
2022-08-27T10:43:57.938Z,21.00
2022-08-27T10:46:50.894Z,21.00
2022-08-27T10:49:39.897Z,21.20
2022-08-27T10:52:26.359Z,21.20
2022-08-27T10:55:11.304Z,21.30
2022-08-27T10:58:06.587Z,21.20
2022-08-27T11:00:55.455Z,21.20
2022-08-27T11:03:51.813Z,21.10
2022-08-27T11:06:33.904Z,21.00
2022-08-27T11:09:22.072Z,21.10
2022-08-27T11:12:15.444Z,21.10
2022-08-27T11:15:02.067Z,21.00
2022-08-27T11:17:39.756Z,20.90
2022-08-27T11:20:19.351Z,21.00
2022-08-27T11:23:01.305Z,21.00
2022-08-27T11:26:02.103Z,21.00
2022-08-27T11:28:42.609Z,21.10
2022-08-27T11:31:27.310Z,21.00
2022-08-27T11:34:04.606Z,21.20
2022-08-27T11:37:19.781Z,21.20
2022-08-27T11:40:22.831Z,21.20
2022-08-27T11:43:05.555Z,21.20
2022-08-27T11:45:50.544Z,21.10
2022-08-27T11:48:21.410Z,21.20
2022-08-27T11:51:00.526Z,21.20
2022-08-27T11:53:52.189Z,21.20
2022-08-27T11:56:29.566Z,21.30
2022-08-27T11:59:32.272Z,21.40
2022-08-27T12:02:32.678Z,21.40
2022-08-27T12:05:38.302Z,21.40
2022-08-27T12:08:22.615Z,21.50
2022-08-27T12:11:24.467Z,21.40
2022-08-27T12:14:33.217Z,21.40
2022-08-27T12:17:41.270Z,21.40
2022-08-27T12:20:27.969Z,21.60
2022-08-27T12:23:42.653Z,21.50
2022-08-27T12:26:29.153Z,21.60
2022-08-27T12:29:43.902Z,21.60
2022-08-27T12:32:31.803Z,21.60
2022-08-27T12:35:19.560Z,21.60
2022-08-27T12:38:25.614Z,21.60
2022-08-27T12:41:03.655Z,21.40
2022-08-27T12:43:35.867Z,21.40
2022-08-27T12:46:19.166Z,21.60
2022-08-27T12:49:10.006Z,21.80
2022-08-27T12:51:51.443Z,21.80
2022-08-27T12:54:41.294Z,21.90
2022-08-27T12:57:40.644Z,22.00
2022-08-27T13:00:24.183Z,22.20
2022-08-27T13:03:00.747Z,22.40
2022-08-27T13:05:45.078Z,22.50
2022-08-27T13:08:35.674Z,22.40
2022-08-27T13:11:22.292Z,22.20
2022-08-27T13:14:05.846Z,22.30
2022-08-27T13:16:40.040Z,22.20
2022-08-27T13:19:30.006Z,22.30
2022-08-27T13:22:03.633Z,22.50
2022-08-27T13:24:47.027Z,22.70
2022-08-27T13:27:30.583Z,22.70
2022-08-27T13:30:08.907Z,22.90
2022-08-27T13:32:41.137Z,22.70
2022-08-27T13:35:12.617Z,22.70
2022-08-27T13:37:53.543Z,22.50
2022-08-27T13:40:36.598Z,22.40
2022-08-27T13:43:13.783Z,22.40
2022-08-27T13:45:51.507Z,22.40
2022-08-27T13:48:24.355Z,22.60
2022-08-27T13:50:57.162Z,22.80
2022-08-27T13:53:50.331Z,22.90
2022-08-27T13:56:31.840Z,23.10
2022-08-27T13:59:31.029Z,23.30
2022-08-27T14:02:10.854Z,23.40
2022-08-27T14:05:07.289Z,23.40
2022-08-27T14:07:51.677Z,23.40
2022-08-27T14:10:39.703Z,22.90
2022-08-27T14:13:16.314Z,23.00
2022-08-27T14:15:56.357Z,23.10
2022-08-27T14:18:58.530Z,23.30
2022-08-27T14:21:27.482Z,23.30
2022-08-27T14:23:59.295Z,23.50
2022-08-27T14:26:30.278Z,23.50
2022-08-27T14:29:01.508Z,23.80
2022-08-27T14:31:32.670Z,23.90
2022-08-27T14:34:03.599Z,23.80
2022-08-27T14:36:38.556Z,24.00
2022-08-27T14:39:11.308Z,23.70
2022-08-27T14:41:42.182Z,23.80
2022-08-27T14:44:13.505Z,23.80
2022-08-27T14:46:44.747Z,23.70
2022-08-27T14:49:27.039Z,23.60
2022-08-27T14:51:58.361Z,23.50
2022-08-27T14:54:33.627Z,23.50
2022-08-27T14:57:06.508Z,23.50
2022-08-27T14:59:38.465Z,23.50
2022-08-27T15:02:14.039Z,23.50
2022-08-27T15:04:47.265Z,23.40
2022-08-27T15:07:19.928Z,23.30
2022-08-27T15:09:55.389Z,23.30
2022-08-27T15:12:26.915Z,23.30
2022-08-27T15:14:57.911Z,23.30
2022-08-27T15:17:35.282Z,23.30
2022-08-27T15:20:11.841Z,23.50
2022-08-27T15:22:52.478Z,23.30
2022-08-27T15:25:23.674Z,23.40
2022-08-27T15:27:54.705Z,23.40
2022-08-27T15:30:29.039Z,23.50
2022-08-27T15:33:00.224Z,23.60
2022-08-27T15:35:31.151Z,23.80
2022-08-27T15:38:02.695Z,23.90
2022-08-27T15:40:36.143Z,24.10
2022-08-27T15:43:08.316Z,24.20
2022-08-27T15:45:39.225Z,24.20
2022-08-27T15:48:10.804Z,24.00
2022-08-27T15:50:42.756Z,23.90
2022-08-27T15:53:14.524Z,23.90
2022-08-27T15:55:45.770Z,23.70
2022-08-27T15:58:17.407Z,23.70
2022-08-27T16:00:48.876Z,23.60
2022-08-27T16:03:35.858Z,23.50
2022-08-27T16:06:08.842Z,23.40
2022-08-27T16:08:42.128Z,23.40
2022-08-27T16:11:13.276Z,23.40
2022-08-27T16:13:44.513Z,23.50
2022-08-27T16:16:16.419Z,23.90
2022-08-27T16:18:47.576Z,24.00
2022-08-27T16:21:18.535Z,23.90
2022-08-27T16:23:50.617Z,23.90
2022-08-27T16:26:21.512Z,23.90
2022-08-27T16:28:52.657Z,23.90
2022-08-27T16:31:24.268Z,23.90
2022-08-27T16:33:55.660Z,24.00
2022-08-27T16:36:26.847Z,24.00
2022-08-27T16:38:57.862Z,24.00
2022-08-27T16:41:28.784Z,23.90
2022-08-27T16:44:00.648Z,23.90
2022-08-27T16:46:31.578Z,23.70
2022-08-27T16:49:21.627Z,23.60
2022-08-27T16:51:52.620Z,23.60
2022-08-27T16:54:23.602Z,23.60
2022-08-27T16:56:54.496Z,23.40
2022-08-27T16:59:25.385Z,23.40
2022-08-27T17:01:57.077Z,23.30
2022-08-27T17:04:32.272Z,23.10
2022-08-27T17:07:09.104Z,23.00
2022-08-27T17:09:40.796Z,22.90
2022-08-27T17:12:12.891Z,22.90
2022-08-27T17:14:43.765Z,22.90
2022-08-27T17:17:14.956Z,22.90
2022-08-27T17:19:46.004Z,22.70
2022-08-27T17:22:16.963Z,22.60
2022-08-27T17:24:47.948Z,22.60
2022-08-27T17:27:20.345Z,22.60
2022-08-27T17:29:51.318Z,22.50
2022-08-27T17:32:22.418Z,22.40
2022-08-27T17:34:53.630Z,22.40
2022-08-27T17:37:24.576Z,22.30
2022-08-27T17:39:55.888Z,22.20
2022-08-27T17:42:26.915Z,22.20
2022-08-27T17:44:58.943Z,22.10
2022-08-27T17:47:29.987Z,22.00
2022-08-27T17:50:00.886Z,22.10
2022-08-27T17:52:33.481Z,22.10
2022-08-27T17:55:05.174Z,22.20
2022-08-27T17:57:40.691Z,22.10
2022-08-27T18:00:14.747Z,22.10
2022-08-27T18:02:49.249Z,22.20
2022-08-27T18:05:24.588Z,22.20
2022-08-27T18:07:57.114Z,22.20
2022-08-27T18:10:28.781Z,22.20
2022-08-27T18:12:59.840Z,22.00
2022-08-27T18:15:34.960Z,21.80
2022-08-27T18:18:06.731Z,21.70
2022-08-27T18:20:42.510Z,21.70
2022-08-27T18:23:13.752Z,21.80
2022-08-27T18:25:45.441Z,21.90
2022-08-27T18:28:18.090Z,22.00
2022-08-27T18:30:49.872Z,22.00
2022-08-27T18:33:20.923Z,21.80
2022-08-27T18:35:51.982Z,21.60
2022-08-27T18:38:23.007Z,21.40
2022-08-27T18:40:54.658Z,21.30
2022-08-27T18:43:34.606Z,21.10
2022-08-27T18:46:06.855Z,21.00
2022-08-27T18:48:38.798Z,21.00
2022-08-27T18:51:13.481Z,20.90
2022-08-27T18:53:44.944Z,20.80
2022-08-27T18:56:18.939Z,20.80
2022-08-27T18:58:49.849Z,20.70
2022-08-27T19:01:25.673Z,20.70
2022-08-27T19:03:58.246Z,20.60
2022-08-27T19:06:29.513Z,20.60
2022-08-27T19:09:00.777Z,20.50
2022-08-27T19:11:31.835Z,20.50
2022-08-27T19:14:03.372Z,20.40
2022-08-27T19:16:50.558Z,20.40
2022-08-27T19:19:24.078Z,20.30
2022-08-27T19:21:55.573Z,20.40
2022-08-27T19:24:29.639Z,20.30
2022-08-27T19:27:01.700Z,20.30
2022-08-27T19:29:32.919Z,20.20
2022-08-27T19:32:04.599Z,20.20
2022-08-27T19:34:35.769Z,20.20
2022-08-27T19:37:08.266Z,20.20
2022-08-27T19:39:39.272Z,20.10
2022-08-27T19:42:10.654Z,20.10
2022-08-27T19:44:41.838Z,20.00
2022-08-27T19:47:16.514Z,20.00
2022-08-27T19:49:56.377Z,20.00
2022-08-27T19:52:27.565Z,20.00
2022-08-27T19:55:13.147Z,20.00
2022-08-27T19:57:47.097Z,20.10
2022-08-27T20:00:21.026Z,20.00
2022-08-27T20:02:52.224Z,20.00
2022-08-27T20:05:23.289Z,20.00
2022-08-27T20:07:54.413Z,20.00
2022-08-27T20:10:31.578Z,20.10
2022-08-27T20:13:07.442Z,20.10
2022-08-27T20:15:39.140Z,20.10
2022-08-27T20:18:13.124Z,20.00
2022-08-27T20:20:44.505Z,20.10
2022-08-27T20:23:15.775Z,20.00
2022-08-27T20:25:46.717Z,20.00
2022-08-27T20:28:38.419Z,20.00
2022-08-27T20:31:10.019Z,20.00
2022-08-27T20:33:41.510Z,19.90
2022-08-27T20:36:13.102Z,19.90
2022-08-27T20:38:44.038Z,19.90
2022-08-27T20:41:14.917Z,20.00
2022-08-27T20:43:45.991Z,20.00
2022-08-27T20:46:22.037Z,20.00
2022-08-27T20:48:53.578Z,20.00
2022-08-27T20:51:25.122Z,20.00
2022-08-27T20:53:56.342Z,20.00
2022-08-27T20:56:27.226Z,20.00
2022-08-27T20:59:16.466Z,20.00
2022-08-27T21:01:47.396Z,20.10
2022-08-27T21:04:18.332Z,20.10
2022-08-27T21:06:49.315Z,20.00
2022-08-27T21:09:21.102Z,20.00
2022-08-27T21:11:52.006Z,19.90
2022-08-27T21:14:23.656Z,19.80
2022-08-27T21:16:54.693Z,19.90
2022-08-27T21:19:26.454Z,19.90
2022-08-27T21:21:57.430Z,19.90
2022-08-27T21:24:31.115Z,19.80
2022-08-27T21:27:02.067Z,19.90
2022-08-27T21:29:33.801Z,20.00
2022-08-27T21:32:05.066Z,19.90
2022-08-27T21:34:35.995Z,19.90
2022-08-27T21:37:06.939Z,19.80
2022-08-27T21:39:39.062Z,19.80
2022-08-27T21:42:11.833Z,19.80
2022-08-27T21:44:43.173Z,19.70
2022-08-27T21:47:14.306Z,19.70
2022-08-27T21:49:45.238Z,19.70
2022-08-27T21:52:16.562Z,19.70
2022-08-27T21:54:47.575Z,19.60
2022-08-27T21:57:19.708Z,19.60
2022-08-27T21:59:51.242Z,19.60
2022-08-27T22:02:39.337Z,19.60
2022-08-27T22:05:11.400Z,19.60
2022-08-27T22:07:42.340Z,19.70
2022-08-27T22:10:13.698Z,19.70
2022-08-27T22:12:44.608Z,19.80
2022-08-27T22:15:15.742Z,19.80
2022-08-27T22:17:51.178Z,19.80
2022-08-27T22:20:22.782Z,19.80
2022-08-27T22:22:54.071Z,19.80
2022-08-27T22:25:26.881Z,19.80
2022-08-27T22:27:57.810Z,19.80
2022-08-27T22:30:28.979Z,19.80
2022-08-27T22:33:00.282Z,19.80
2022-08-27T22:35:31.358Z,19.80
2022-08-27T22:38:02.569Z,19.80
2022-08-27T22:40:35.118Z,19.90
2022-08-27T22:43:06.658Z,19.90
2022-08-27T22:45:37.693Z,19.80
2022-08-27T22:48:09.381Z,19.80
2022-08-27T22:50:40.662Z,19.80
2022-08-27T22:53:12.518Z,19.80
2022-08-27T22:55:47.992Z,19.80
2022-08-27T22:58:24.383Z,19.80
2022-08-27T23:00:55.678Z,19.80
2022-08-27T23:03:26.838Z,19.80
2022-08-27T23:05:57.788Z,19.80
2022-08-27T23:08:29.991Z,19.80
2022-08-27T23:11:03.402Z,19.90
2022-08-27T23:13:34.567Z,19.90
2022-08-27T23:16:06.062Z,19.90
2022-08-27T23:18:40.644Z,19.90
2022-08-27T23:21:11.610Z,19.90
2022-08-27T23:23:42.650Z,19.90
2022-08-27T23:26:32.513Z,20.00
2022-08-27T23:29:05.375Z,19.90
2022-08-27T23:31:37.229Z,20.00
2022-08-27T23:34:08.205Z,20.00
2022-08-27T23:36:39.074Z,19.90
2022-08-27T23:39:10.725Z,19.80
2022-08-27T23:41:43.848Z,19.90
2022-08-27T23:44:15.724Z,20.10
2022-08-27T23:46:48.665Z,20.30
2022-08-27T23:49:21.514Z,20.50
2022-08-27T23:51:52.413Z,20.70
2022-08-27T23:54:23.947Z,20.80
2022-08-27T23:56:55.057Z,20.70
2022-08-27T23:59:30.284Z,20.70
